sensor_id;sensor_type;location;lat;lon;timestamp;P1;durP1;ratioP1;P2;durP2;ratioP2
51660;SDS011;37741;49.748;8.490;2023-08-21T00:01:55;5.68;;;4.45;;
51660;SDS011;37741;49.748;8.490;2023-08-21T00:04:20;4.53;;;3.13;;
51660;SDS011;37741;49.748;8.490;2023-08-21T00:06:46;5.45;;;3.65;;
51660;SDS011;37741;49.748;8.490;2023-08-21T00:09:12;5.53;;;3.97;;
51660;SDS011;37741;49.748;8.490;2023-08-21T00:11:37;7.50;;;4.43;;
51660;SDS011;37741;49.748;8.490;2023-08-21T00:14:03;6.47;;;4.22;;
51660;SDS011;37741;49.748;8.490;2023-08-21T00:16:29;5.15;;;4.57;;
51660;SDS011;37741;49.748;8.490;2023-08-21T00:18:56;4.32;;;3.60;;
51660;SDS011;37741;49.748;8.490;2023-08-21T00:21:22;5.20;;;4.53;;
51660;SDS011;37741;49.748;8.490;2023-08-21T00:23:48;5.85;;;4.13;;
51660;SDS011;37741;49.748;8.490;2023-08-21T00:26:13;5.72;;;4.63;;
51660;SDS011;37741;49.748;8.490;2023-08-21T00:28:39;5.97;;;4.13;;
51660;SDS011;37741;49.748;8.490;2023-08-21T00:31:05;6.35;;;4.30;;
51660;SDS011;37741;49.748;8.490;2023-08-21T00:33:31;4.88;;;4.18;;
51660;SDS011;37741;49.748;8.490;2023-08-21T00:35:57;4.65;;;3.88;;
51660;SDS011;37741;49.748;8.490;2023-08-21T00:38:23;6.65;;;4.68;;
51660;SDS011;37741;49.748;8.490;2023-08-21T00:40:49;5.07;;;4.13;;
51660;SDS011;37741;49.748;8.490;2023-08-21T00:43:15;6.35;;;4.30;;
51660;SDS011;37741;49.748;8.490;2023-08-21T00:45:42;5.07;;;4.32;;
51660;SDS011;37741;49.748;8.490;2023-08-21T00:48:09;5.72;;;4.55;;
51660;SDS011;37741;49.748;8.490;2023-08-21T00:50:36;5.45;;;4.30;;
51660;SDS011;37741;49.748;8.490;2023-08-21T00:53:02;4.35;;;3.85;;
51660;SDS011;37741;49.748;8.490;2023-08-21T00:55:28;5.60;;;4.53;;
51660;SDS011;37741;49.748;8.490;2023-08-21T00:57:55;5.70;;;4.20;;
51660;SDS011;37741;49.748;8.490;2023-08-21T01:00:21;5.82;;;3.72;;
51660;SDS011;37741;49.748;8.490;2023-08-21T01:02:47;5.60;;;4.47;;
51660;SDS011;37741;49.748;8.490;2023-08-21T01:05:13;5.65;;;4.75;;
51660;SDS011;37741;49.748;8.490;2023-08-21T01:07:43;4.90;;;4.45;;
51660;SDS011;37741;49.748;8.490;2023-08-21T01:13:49;5.13;;;4.57;;
51660;SDS011;37741;49.748;8.490;2023-08-21T01:16:24;6.95;;;4.57;;
51660;SDS011;37741;49.748;8.490;2023-08-21T01:18:51;5.63;;;4.72;;
51660;SDS011;37741;49.748;8.490;2023-08-21T01:21:19;5.70;;;4.90;;
51660;SDS011;37741;49.748;8.490;2023-08-21T01:23:45;4.80;;;4.35;;
51660;SDS011;37741;49.748;8.490;2023-08-21T01:26:10;5.47;;;3.92;;
51660;SDS011;37741;49.748;8.490;2023-08-21T01:28:36;6.82;;;5.22;;
51660;SDS011;37741;49.748;8.490;2023-08-21T01:33:28;8.73;;;4.80;;
51660;SDS011;37741;49.748;8.490;2023-08-21T01:35:58;5.18;;;4.55;;
51660;SDS011;37741;49.748;8.490;2023-08-21T01:38:28;5.97;;;4.95;;
51660;SDS011;37741;49.748;8.490;2023-08-21T01:40:56;5.97;;;4.55;;
51660;SDS011;37741;49.748;8.490;2023-08-21T01:43:21;5.60;;;4.70;;
51660;SDS011;37741;49.748;8.490;2023-08-21T01:45:47;6.28;;;4.72;;
51660;SDS011;37741;49.748;8.490;2023-08-21T01:48:13;7.20;;;5.07;;
51660;SDS011;37741;49.748;8.490;2023-08-21T01:50:38;6.75;;;4.88;;
51660;SDS011;37741;49.748;8.490;2023-08-21T01:53:04;5.05;;;4.45;;
51660;SDS011;37741;49.748;8.490;2023-08-21T01:55:29;5.38;;;4.75;;
51660;SDS011;37741;49.748;8.490;2023-08-21T01:57:55;6.32;;;4.68;;
51660;SDS011;37741;49.748;8.490;2023-08-21T02:00:21;6.05;;;4.40;;
51660;SDS011;37741;49.748;8.490;2023-08-21T02:02:46;6.22;;;5.22;;
51660;SDS011;37741;49.748;8.490;2023-08-21T02:05:12;6.25;;;4.90;;
51660;SDS011;37741;49.748;8.490;2023-08-21T02:07:37;7.70;;;4.90;;
51660;SDS011;37741;49.748;8.490;2023-08-21T02:10:03;4.80;;;4.20;;
51660;SDS011;37741;49.748;8.490;2023-08-21T02:12:29;5.30;;;4.80;;
51660;SDS011;37741;49.748;8.490;2023-08-21T02:14:54;7.50;;;5.07;;
51660;SDS011;37741;49.748;8.490;2023-08-21T02:17:20;6.00;;;4.65;;
51660;SDS011;37741;49.748;8.490;2023-08-21T02:19:46;5.75;;;4.90;;
51660;SDS011;37741;49.748;8.490;2023-08-21T02:22:11;6.97;;;5.57;;
51660;SDS011;37741;49.748;8.490;2023-08-21T02:24:37;7.75;;;5.03;;
51660;SDS011;37741;49.748;8.490;2023-08-21T02:27:03;5.20;;;4.70;;
51660;SDS011;37741;49.748;8.490;2023-08-21T02:29:29;5.13;;;4.63;;
51660;SDS011;37741;49.748;8.490;2023-08-21T02:31:54;5.68;;;4.78;;
51660;SDS011;37741;49.748;8.490;2023-08-21T02:34:20;8.63;;;4.93;;
51660;SDS011;37741;49.748;8.490;2023-08-21T02:36:45;6.88;;;5.25;;
51660;SDS011;37741;49.748;8.490;2023-08-21T02:39:11;5.72;;;4.55;;
51660;SDS011;37741;49.748;8.490;2023-08-21T02:41:39;7.05;;;5.15;;
51660;SDS011;37741;49.748;8.490;2023-08-21T02:44:04;6.13;;;5.35;;
51660;SDS011;37741;49.748;8.490;2023-08-21T02:46:30;7.53;;;6.68;;
51660;SDS011;37741;49.748;8.490;2023-08-21T02:48:55;5.10;;;4.70;;
51660;SDS011;37741;49.748;8.490;2023-08-21T02:51:21;6.50;;;5.25;;
51660;SDS011;37741;49.748;8.490;2023-08-21T02:53:46;6.30;;;5.30;;
51660;SDS011;37741;49.748;8.490;2023-08-21T02:56:12;6.30;;;5.32;;
51660;SDS011;37741;49.748;8.490;2023-08-21T02:58:38;6.93;;;5.18;;
51660;SDS011;37741;49.748;8.490;2023-08-21T03:01:03;5.78;;;5.18;;
51660;SDS011;37741;49.748;8.490;2023-08-21T03:03:29;6.07;;;5.25;;
51660;SDS011;37741;49.748;8.490;2023-08-21T03:05:54;5.88;;;5.18;;
51660;SDS011;37741;49.748;8.490;2023-08-21T03:08:20;6.70;;;5.90;;
51660;SDS011;37741;49.748;8.490;2023-08-21T03:10:45;6.80;;;5.78;;
51660;SDS011;37741;49.748;8.490;2023-08-21T03:13:11;5.85;;;5.28;;
51660;SDS011;37741;49.748;8.490;2023-08-21T03:15:37;8.05;;;5.00;;
51660;SDS011;37741;49.748;8.490;2023-08-21T03:18:02;6.32;;;5.68;;
51660;SDS011;37741;49.748;8.490;2023-08-21T03:20:28;6.10;;;5.38;;
51660;SDS011;37741;49.748;8.490;2023-08-21T03:22:54;6.10;;;5.07;;
51660;SDS011;37741;49.748;8.490;2023-08-21T03:25:19;7.40;;;5.50;;
51660;SDS011;37741;49.748;8.490;2023-08-21T03:27:45;6.50;;;5.55;;
51660;SDS011;37741;49.748;8.490;2023-08-21T03:30:14;7.38;;;5.57;;
51660;SDS011;37741;49.748;8.490;2023-08-21T03:32:40;6.05;;;5.45;;
51660;SDS011;37741;49.748;8.490;2023-08-21T03:35:06;5.90;;;5.30;;
51660;SDS011;37741;49.748;8.490;2023-08-21T03:37:32;9.80;;;5.55;;
51660;SDS011;37741;49.748;8.490;2023-08-21T03:39:58;6.07;;;5.55;;
51660;SDS011;37741;49.748;8.490;2023-08-21T03:42:23;5.85;;;5.35;;
51660;SDS011;37741;49.748;8.490;2023-08-21T03:44:49;6.43;;;5.82;;
51660;SDS011;37741;49.748;8.490;2023-08-21T03:47:17;7.50;;;6.18;;
51660;SDS011;37741;49.748;8.490;2023-08-21T03:49:52;9.50;;;5.72;;
51660;SDS011;37741;49.748;8.490;2023-08-21T03:52:18;6.05;;;5.43;;
51660;SDS011;37741;49.748;8.490;2023-08-21T03:54:43;5.57;;;5.05;;
51660;SDS011;37741;49.748;8.490;2023-08-21T03:57:12;11.85;;;6.38;;
51660;SDS011;37741;49.748;8.490;2023-08-21T03:59:37;9.10;;;5.95;;
51660;SDS011;37741;49.748;8.490;2023-08-21T04:02:03;6.80;;;6.13;;
51660;SDS011;37741;49.748;8.490;2023-08-21T04:04:29;8.73;;;5.95;;
51660;SDS011;37741;49.748;8.490;2023-08-21T04:06:55;7.85;;;6.47;;
51660;SDS011;37741;49.748;8.490;2023-08-21T04:09:20;8.95;;;6.88;;
51660;SDS011;37741;49.748;8.490;2023-08-21T04:11:46;8.40;;;6.28;;
51660;SDS011;37741;49.748;8.490;2023-08-21T04:14:12;8.23;;;6.35;;
51660;SDS011;37741;49.748;8.490;2023-08-21T04:16:37;7.05;;;6.07;;
51660;SDS011;37741;49.748;8.490;2023-08-21T04:19:03;8.65;;;6.90;;
51660;SDS011;37741;49.748;8.490;2023-08-21T04:21:30;8.65;;;6.63;;
51660;SDS011;37741;49.748;8.490;2023-08-21T04:23:55;7.75;;;6.95;;
51660;SDS011;37741;49.748;8.490;2023-08-21T04:26:21;7.18;;;6.00;;
51660;SDS011;37741;49.748;8.490;2023-08-21T04:28:47;7.50;;;6.28;;
51660;SDS011;37741;49.748;8.490;2023-08-21T04:31:12;6.93;;;6.28;;
51660;SDS011;37741;49.748;8.490;2023-08-21T04:33:38;7.30;;;6.55;;
51660;SDS011;37741;49.748;8.490;2023-08-21T04:36:04;7.95;;;6.38;;
51660;SDS011;37741;49.748;8.490;2023-08-21T04:38:30;8.05;;;6.45;;
51660;SDS011;37741;49.748;8.490;2023-08-21T04:40:55;9.38;;;6.63;;
51660;SDS011;37741;49.748;8.490;2023-08-21T04:43:21;6.60;;;6.00;;
51660;SDS011;37741;49.748;8.490;2023-08-21T04:45:52;8.77;;;6.15;;
51660;SDS011;37741;49.748;8.490;2023-08-21T04:48:20;6.85;;;6.15;;
51660;SDS011;37741;49.748;8.490;2023-08-21T04:50:46;8.93;;;6.25;;
51660;SDS011;37741;49.748;8.490;2023-08-21T04:53:12;7.22;;;6.50;;
51660;SDS011;37741;49.748;8.490;2023-08-21T04:55:39;8.82;;;6.82;;
51660;SDS011;37741;49.748;8.490;2023-08-21T04:58:06;7.22;;;6.40;;
51660;SDS011;37741;49.748;8.490;2023-08-21T05:00:32;9.25;;;6.40;;
51660;SDS011;37741;49.748;8.490;2023-08-21T05:02:57;7.07;;;6.30;;
51660;SDS011;37741;49.748;8.490;2023-08-21T05:05:23;7.00;;;6.10;;
51660;SDS011;37741;49.748;8.490;2023-08-21T05:07:49;8.55;;;6.53;;
51660;SDS011;37741;49.748;8.490;2023-08-21T05:10:15;7.53;;;6.75;;
51660;SDS011;37741;49.748;8.490;2023-08-21T05:12:40;7.50;;;6.32;;
51660;SDS011;37741;49.748;8.490;2023-08-21T05:15:06;7.50;;;6.50;;
51660;SDS011;37741;49.748;8.490;2023-08-21T05:17:32;7.68;;;6.90;;
51660;SDS011;37741;49.748;8.490;2023-08-21T05:19:58;7.55;;;6.85;;
51660;SDS011;37741;49.748;8.490;2023-08-21T05:22:24;7.57;;;6.72;;
51660;SDS011;37741;49.748;8.490;2023-08-21T05:24:49;9.75;;;7.68;;
51660;SDS011;37741;49.748;8.490;2023-08-21T05:27:15;9.07;;;7.28;;
51660;SDS011;37741;49.748;8.490;2023-08-21T05:29:40;7.18;;;6.00;;
51660;SDS011;37741;49.748;8.490;2023-08-21T05:32:06;6.90;;;6.20;;
51660;SDS011;37741;49.748;8.490;2023-08-21T05:34:32;8.02;;;7.03;;
51660;SDS011;37741;49.748;8.490;2023-08-21T05:36:57;7.40;;;6.68;;
51660;SDS011;37741;49.748;8.490;2023-08-21T05:39:25;8.15;;;6.72;;
51660;SDS011;37741;49.748;8.490;2023-08-21T05:41:51;8.50;;;6.20;;
51660;SDS011;37741;49.748;8.490;2023-08-21T05:44:17;8.63;;;7.82;;
51660;SDS011;37741;49.748;8.490;2023-08-21T05:46:43;7.35;;;6.60;;
51660;SDS011;37741;49.748;8.490;2023-08-21T05:49:08;7.20;;;6.50;;
51660;SDS011;37741;49.748;8.490;2023-08-21T05:51:34;7.05;;;6.35;;
51660;SDS011;37741;49.748;8.490;2023-08-21T05:54:00;9.15;;;7.05;;
51660;SDS011;37741;49.748;8.490;2023-08-21T05:56:25;7.65;;;6.93;;
51660;SDS011;37741;49.748;8.490;2023-08-21T05:58:51;9.23;;;6.85;;
51660;SDS011;37741;49.748;8.490;2023-08-21T06:01:17;8.40;;;6.72;;
51660;SDS011;37741;49.748;8.490;2023-08-21T06:03:50;7.47;;;6.78;;
51660;SDS011;37741;49.748;8.490;2023-08-21T06:06:15;9.60;;;6.90;;
51660;SDS011;37741;49.748;8.490;2023-08-21T06:08:41;7.60;;;6.90;;
51660;SDS011;37741;49.748;8.490;2023-08-21T06:11:06;7.60;;;6.80;;
51660;SDS011;37741;49.748;8.490;2023-08-21T06:13:37;7.72;;;6.93;;
51660;SDS011;37741;49.748;8.490;2023-08-21T06:16:05;8.35;;;7.53;;
51660;SDS011;37741;49.748;8.490;2023-08-21T06:18:31;7.43;;;6.25;;
51660;SDS011;37741;49.748;8.490;2023-08-21T06:20:57;7.93;;;7.13;;
51660;SDS011;37741;49.748;8.490;2023-08-21T06:23:22;8.75;;;6.43;;
51660;SDS011;37741;49.748;8.490;2023-08-21T06:25:48;7.55;;;6.22;;
51660;SDS011;37741;49.748;8.490;2023-08-21T06:28:14;7.65;;;6.40;;
51660;SDS011;37741;49.748;8.490;2023-08-21T06:30:39;7.25;;;6.55;;
51660;SDS011;37741;49.748;8.490;2023-08-21T06:33:05;7.25;;;6.55;;
51660;SDS011;37741;49.748;8.490;2023-08-21T06:35:36;7.68;;;6.80;;
51660;SDS011;37741;49.748;8.490;2023-08-21T06:38:09;7.38;;;6.00;;
51660;SDS011;37741;49.748;8.490;2023-08-21T06:40:35;7.13;;;6.45;;
51660;SDS011;37741;49.748;8.490;2023-08-21T06:43:00;10.13;;;6.10;;
51660;SDS011;37741;49.748;8.490;2023-08-21T06:45:26;7.30;;;6.60;;
51660;SDS011;37741;49.748;8.490;2023-08-21T06:47:58;8.23;;;7.47;;
51660;SDS011;37741;49.748;8.490;2023-08-21T06:50:23;7.50;;;6.78;;
51660;SDS011;37741;49.748;8.490;2023-08-21T06:52:49;8.00;;;7.20;;
51660;SDS011;37741;49.748;8.490;2023-08-21T06:55:15;6.85;;;6.15;;
51660;SDS011;37741;49.748;8.490;2023-08-21T06:57:40;7.78;;;6.65;;
51660;SDS011;37741;49.748;8.490;2023-08-21T07:00:06;7.13;;;6.50;;
51660;SDS011;37741;49.748;8.490;2023-08-21T07:02:32;7.22;;;6.07;;
51660;SDS011;37741;49.748;8.490;2023-08-21T07:04:58;7.47;;;6.72;;
51660;SDS011;37741;49.748;8.490;2023-08-21T07:07:23;7.32;;;6.63;;
51660;SDS011;37741;49.748;8.490;2023-08-21T07:09:49;8.77;;;7.68;;
51660;SDS011;37741;49.748;8.490;2023-08-21T07:12:15;7.65;;;6.95;;
51660;SDS011;37741;49.748;8.490;2023-08-21T07:14:41;7.88;;;7.07;;
51660;SDS011;37741;49.748;8.490;2023-08-21T07:17:06;7.22;;;6.53;;
51660;SDS011;37741;49.748;8.490;2023-08-21T07:19:32;9.48;;;7.28;;
51660;SDS011;37741;49.748;8.490;2023-08-21T07:21:57;7.43;;;6.65;;
51660;SDS011;37741;49.748;8.490;2023-08-21T07:24:23;7.18;;;5.80;;
51660;SDS011;37741;49.748;8.490;2023-08-21T07:26:49;7.72;;;6.47;;
51660;SDS011;37741;49.748;8.490;2023-08-21T07:29:14;7.95;;;6.72;;
51660;SDS011;37741;49.748;8.490;2023-08-21T07:31:40;7.75;;;6.78;;
51660;SDS011;37741;49.748;8.490;2023-08-21T07:34:06;7.50;;;6.80;;
51660;SDS011;37741;49.748;8.490;2023-08-21T07:36:32;7.00;;;6.38;;
51660;SDS011;37741;49.748;8.490;2023-08-21T07:39:00;10.98;;;6.80;;
51660;SDS011;37741;49.748;8.490;2023-08-21T07:41:25;7.35;;;6.57;;
51660;SDS011;37741;49.748;8.490;2023-08-21T07:43:51;7.07;;;5.75;;
51660;SDS011;37741;49.748;8.490;2023-08-21T07:46:16;8.30;;;6.53;;
51660;SDS011;37741;49.748;8.490;2023-08-21T07:48:43;7.38;;;6.50;;
51660;SDS011;37741;49.748;8.490;2023-08-21T07:51:09;7.65;;;6.95;;
51660;SDS011;37741;49.748;8.490;2023-08-21T07:53:35;8.95;;;6.72;;
51660;SDS011;37741;49.748;8.490;2023-08-21T07:56:01;8.63;;;6.80;;
51660;SDS011;37741;49.748;8.490;2023-08-21T07:58:31;7.30;;;5.78;;
51660;SDS011;37741;49.748;8.490;2023-08-21T08:00:57;7.32;;;6.22;;
51660;SDS011;37741;49.748;8.490;2023-08-21T08:03:23;7.25;;;6.55;;
51660;SDS011;37741;49.748;8.490;2023-08-21T08:05:49;15.75;;;7.35;;
51660;SDS011;37741;49.748;8.490;2023-08-21T08:08:16;11.40;;;7.55;;
51660;SDS011;37741;49.748;8.490;2023-08-21T08:11:19;12.98;;;7.68;;
51660;SDS011;37741;49.748;8.490;2023-08-21T08:13:45;9.23;;;7.60;;
51660;SDS011;37741;49.748;8.490;2023-08-21T08:16:11;11.88;;;6.70;;
51660;SDS011;37741;49.748;8.490;2023-08-21T08:18:37;9.60;;;7.22;;
51660;SDS011;37741;49.748;8.490;2023-08-21T08:21:03;11.18;;;7.53;;
51660;SDS011;37741;49.748;8.490;2023-08-21T08:23:29;11.05;;;6.80;;
51660;SDS011;37741;49.748;8.490;2023-08-21T08:25:54;7.47;;;6.65;;
51660;SDS011;37741;49.748;8.490;2023-08-21T08:28:20;8.18;;;6.38;;
51660;SDS011;37741;49.748;8.490;2023-08-21T08:30:45;7.93;;;6.70;;
51660;SDS011;37741;49.748;8.490;2023-08-21T08:33:15;8.27;;;6.70;;
51660;SDS011;37741;49.748;8.490;2023-08-21T08:35:40;9.18;;;6.93;;
51660;SDS011;37741;49.748;8.490;2023-08-21T08:38:06;8.40;;;6.55;;
51660;SDS011;37741;49.748;8.490;2023-08-21T08:40:32;7.15;;;6.45;;
51660;SDS011;37741;49.748;8.490;2023-08-21T08:42:59;7.22;;;6.47;;
51660;SDS011;37741;49.748;8.490;2023-08-21T08:45:28;7.88;;;7.00;;
51660;SDS011;37741;49.748;8.490;2023-08-21T08:47:58;7.07;;;6.38;;
51660;SDS011;37741;49.748;8.490;2023-08-21T08:50:31;7.15;;;5.65;;
51660;SDS011;37741;49.748;8.490;2023-08-21T08:52:58;7.72;;;6.97;;
51660;SDS011;37741;49.748;8.490;2023-08-21T08:55:26;8.88;;;7.05;;
51660;SDS011;37741;49.748;8.490;2023-08-21T08:57:52;7.18;;;5.82;;
51660;SDS011;37741;49.748;8.490;2023-08-21T09:00:19;7.35;;;6.65;;
51660;SDS011;37741;49.748;8.490;2023-08-21T09:02:47;7.57;;;6.82;;
51660;SDS011;37741;49.748;8.490;2023-08-21T09:05:13;8.70;;;7.85;;
51660;SDS011;37741;49.748;8.490;2023-08-21T09:07:39;7.38;;;6.68;;
51660;SDS011;37741;49.748;8.490;2023-08-21T09:10:05;6.57;;;5.93;;
51660;SDS011;37741;49.748;8.490;2023-08-21T09:12:39;7.22;;;6.53;;
51660;SDS011;37741;49.748;8.490;2023-08-21T09:15:07;10.57;;;6.80;;
51660;SDS011;37741;49.748;8.490;2023-08-21T09:17:33;8.23;;;6.80;;
51660;SDS011;37741;49.748;8.490;2023-08-21T09:20:06;7.82;;;7.07;;
51660;SDS011;37741;49.748;8.490;2023-08-21T09:22:35;7.32;;;6.60;;
51660;SDS011;37741;49.748;8.490;2023-08-21T09:25:05;9.13;;;6.53;;
51660;SDS011;37741;49.748;8.490;2023-08-21T09:27:36;8.25;;;6.65;;
51660;SDS011;37741;49.748;8.490;2023-08-21T09:30:06;7.60;;;6.32;;
51660;SDS011;37741;49.748;8.490;2023-08-21T09:35:25;9.18;;;6.32;;
51660;SDS011;37741;49.748;8.490;2023-08-21T09:37:51;7.68;;;6.97;;
51660;SDS011;37741;49.748;8.490;2023-08-21T09:40:20;7.32;;;6.63;;
51660;SDS011;37741;49.748;8.490;2023-08-21T09:42:51;7.63;;;6.70;;
51660;SDS011;37741;49.748;8.490;2023-08-21T09:45:25;7.20;;;6.20;;
51660;SDS011;37741;49.748;8.490;2023-08-21T09:47:55;8.60;;;7.07;;
51660;SDS011;37741;49.748;8.490;2023-08-21T09:50:23;7.00;;;6.32;;
51660;SDS011;37741;49.748;8.490;2023-08-21T09:52:50;12.63;;;6.38;;
51660;SDS011;37741;49.748;8.490;2023-08-21T09:55:18;8.85;;;7.30;;
51660;SDS011;37741;49.748;8.490;2023-08-21T09:57:51;7.18;;;6.35;;
51660;SDS011;37741;49.748;8.490;2023-08-21T10:00:23;6.47;;;5.88;;
51660;SDS011;37741;49.748;8.490;2023-08-21T10:03:08;8.98;;;6.82;;
51660;SDS011;37741;49.748;8.490;2023-08-21T10:05:39;6.63;;;6.03;;
51660;SDS011;37741;49.748;8.490;2023-08-21T10:08:05;7.28;;;6.60;;
51660;SDS011;37741;49.748;8.490;2023-08-21T10:10:33;7.13;;;6.43;;
51660;SDS011;37741;49.748;8.490;2023-08-21T10:13:03;6.85;;;6.07;;
51660;SDS011;37741;49.748;8.490;2023-08-21T10:15:31;7.50;;;6.80;;
51660;SDS011;37741;49.748;8.490;2023-08-21T10:17:59;7.05;;;6.35;;
51660;SDS011;37741;49.748;8.490;2023-08-21T10:20:43;7.57;;;6.05;;
51660;SDS011;37741;49.748;8.490;2023-08-21T10:23:23;6.25;;;5.63;;
51660;SDS011;37741;49.748;8.490;2023-08-21T10:26:00;7.15;;;6.35;;
51660;SDS011;37741;49.748;8.490;2023-08-21T10:34:04;13.63;;;8.25;;
51660;SDS011;37741;49.748;8.490;2023-08-21T10:39:15;7.15;;;5.90;;
51660;SDS011;37741;49.748;8.490;2023-08-21T10:41:58;9.02;;;5.93;;
51660;SDS011;37741;49.748;8.490;2023-08-21T10:44:36;8.43;;;6.03;;
51660;SDS011;37741;49.748;8.490;2023-08-21T10:47:16;6.50;;;5.88;;
51660;SDS011;37741;49.748;8.490;2023-08-21T10:49:51;9.50;;;5.75;;
51660;SDS011;37741;49.748;8.490;2023-08-21T10:52:24;8.15;;;4.72;;
51660;SDS011;37741;49.748;8.490;2023-08-21T10:54:52;8.35;;;5.70;;
51660;SDS011;37741;49.748;8.490;2023-08-21T10:57:19;6.13;;;5.50;;
51660;SDS011;37741;49.748;8.490;2023-08-21T10:59:51;6.60;;;5.90;;
51660;SDS011;37741;49.748;8.490;2023-08-21T11:02:31;6.70;;;6.00;;
51660;SDS011;37741;49.748;8.490;2023-08-21T11:04:58;7.10;;;6.22;;
51660;SDS011;37741;49.748;8.490;2023-08-21T11:07:28;6.15;;;5.45;;
51660;SDS011;37741;49.748;8.490;2023-08-21T11:10:16;7.15;;;5.25;;
51660;SDS011;37741;49.748;8.490;2023-08-21T11:15:17;6.40;;;4.80;;
51660;SDS011;37741;49.748;8.490;2023-08-21T11:17:50;8.07;;;4.38;;
51660;SDS011;37741;49.748;8.490;2023-08-21T11:20:18;5.72;;;5.13;;
51660;SDS011;37741;49.748;8.490;2023-08-21T11:22:44;5.82;;;5.28;;
51660;SDS011;37741;49.748;8.490;2023-08-21T11:25:09;5.90;;;3.95;;
51660;SDS011;37741;49.748;8.490;2023-08-21T11:27:39;4.85;;;4.20;;
51660;SDS011;37741;49.748;8.490;2023-08-21T11:30:05;5.93;;;4.40;;
51660;SDS011;37741;49.748;8.490;2023-08-21T11:32:31;6.30;;;4.22;;
51660;SDS011;37741;49.748;8.490;2023-08-21T11:34:57;4.22;;;3.80;;
51660;SDS011;37741;49.748;8.490;2023-08-21T11:37:24;6.60;;;4.18;;
51660;SDS011;37741;49.748;8.490;2023-08-21T11:39:52;4.18;;;3.20;;
51660;SDS011;37741;49.748;8.490;2023-08-21T11:42:28;4.80;;;3.25;;
51660;SDS011;37741;49.748;8.490;2023-08-21T11:44:58;3.95;;;3.03;;
51660;SDS011;37741;49.748;8.490;2023-08-21T11:47:29;3.35;;;2.92;;
51660;SDS011;37741;49.748;8.490;2023-08-21T11:50:04;4.57;;;3.08;;
51660;SDS011;37741;49.748;8.490;2023-08-21T11:52:34;3.97;;;3.20;;
51660;SDS011;37741;49.748;8.490;2023-08-21T11:55:06;3.78;;;3.35;;
51660;SDS011;37741;49.748;8.490;2023-08-21T11:57:35;5.82;;;2.90;;
51660;SDS011;37741;49.748;8.490;2023-08-21T12:00:14;3.92;;;3.03;;
51660;SDS011;37741;49.748;8.490;2023-08-21T12:02:43;4.43;;;3.10;;
51660;SDS011;37741;49.748;8.490;2023-08-21T12:05:18;4.32;;;3.10;;
51660;SDS011;37741;49.748;8.490;2023-08-21T12:07:44;4.32;;;3.20;;
51660;SDS011;37741;49.748;8.490;2023-08-21T12:10:10;5.45;;;2.42;;
51660;SDS011;37741;49.748;8.490;2023-08-21T12:12:36;3.63;;;2.20;;
51660;SDS011;37741;49.748;8.490;2023-08-21T12:15:01;4.53;;;1.98;;
51660;SDS011;37741;49.748;8.490;2023-08-21T12:17:27;2.83;;;1.80;;
51660;SDS011;37741;49.748;8.490;2023-08-21T12:19:53;4.47;;;2.00;;
51660;SDS011;37741;49.748;8.490;2023-08-21T12:22:18;3.33;;;1.98;;
51660;SDS011;37741;49.748;8.490;2023-08-21T12:24:44;3.10;;;1.70;;
51660;SDS011;37741;49.748;8.490;2023-08-21T12:27:10;4.97;;;1.90;;
51660;SDS011;37741;49.748;8.490;2023-08-21T12:29:36;3.38;;;1.52;;
51660;SDS011;37741;49.748;8.490;2023-08-21T12:32:01;4.30;;;1.70;;
51660;SDS011;37741;49.748;8.490;2023-08-21T12:34:30;2.63;;;1.70;;
51660;SDS011;37741;49.748;8.490;2023-08-21T12:36:56;3.10;;;1.48;;
51660;SDS011;37741;49.748;8.490;2023-08-21T12:39:21;2.65;;;1.70;;
51660;SDS011;37741;49.748;8.490;2023-08-21T12:41:47;2.58;;;1.50;;
51660;SDS011;37741;49.748;8.490;2023-08-21T12:44:13;3.28;;;1.63;;
51660;SDS011;37741;49.748;8.490;2023-08-21T12:46:39;3.30;;;1.50;;
51660;SDS011;37741;49.748;8.490;2023-08-21T12:49:05;3.63;;;1.67;;
51660;SDS011;37741;49.748;8.490;2023-08-21T12:51:31;4.20;;;2.28;;
51660;SDS011;37741;49.748;8.490;2023-08-21T12:53:57;3.55;;;1.70;;
51660;SDS011;37741;49.748;8.490;2023-08-21T12:56:22;2.92;;;1.60;;
51660;SDS011;37741;49.748;8.490;2023-08-21T12:58:48;2.50;;;1.40;;
51660;SDS011;37741;49.748;8.490;2023-08-21T13:01:14;3.17;;;1.88;;
51660;SDS011;37741;49.748;8.490;2023-08-21T13:03:45;3.47;;;1.52;;
51660;SDS011;37741;49.748;8.490;2023-08-21T13:06:12;3.15;;;1.40;;
51660;SDS011;37741;49.748;8.490;2023-08-21T13:08:41;2.38;;;1.30;;
51660;SDS011;37741;49.748;8.490;2023-08-21T13:11:06;2.20;;;1.20;;
51660;SDS011;37741;49.748;8.490;2023-08-21T13:13:33;2.20;;;1.67;;
51660;SDS011;37741;49.748;8.490;2023-08-21T13:15:59;2.35;;;1.45;;
51660;SDS011;37741;49.748;8.490;2023-08-21T13:18:25;3.65;;;1.65;;
51660;SDS011;37741;49.748;8.490;2023-08-21T13:20:51;2.50;;;1.70;;
51660;SDS011;37741;49.748;8.490;2023-08-21T13:23:17;2.50;;;1.75;;
51660;SDS011;37741;49.748;8.490;2023-08-21T13:25:42;1.83;;;1.10;;
51660;SDS011;37741;49.748;8.490;2023-08-21T13:28:08;2.53;;;1.30;;
51660;SDS011;37741;49.748;8.490;2023-08-21T13:33:23;1.98;;;1.40;;
51660;SDS011;37741;49.748;8.490;2023-08-21T13:35:49;2.45;;;1.33;;
51660;SDS011;37741;49.748;8.490;2023-08-21T13:38:15;3.58;;;1.45;;
51660;SDS011;37741;49.748;8.490;2023-08-21T13:40:41;2.20;;;1.38;;
51660;SDS011;37741;49.748;8.490;2023-08-21T13:43:07;2.65;;;1.27;;
51660;SDS011;37741;49.748;8.490;2023-08-21T13:45:34;2.60;;;1.60;;
51660;SDS011;37741;49.748;8.490;2023-08-21T13:48:00;6.03;;;1.20;;
51660;SDS011;37741;49.748;8.490;2023-08-21T13:50:26;3.78;;;1.52;;
51660;SDS011;37741;49.748;8.490;2023-08-21T13:52:52;2.45;;;1.60;;
51660;SDS011;37741;49.748;8.490;2023-08-21T13:55:17;4.28;;;1.60;;
51660;SDS011;37741;49.748;8.490;2023-08-21T13:57:43;2.30;;;1.60;;
51660;SDS011;37741;49.748;8.490;2023-08-21T14:00:10;2.20;;;1.40;;
51660;SDS011;37741;49.748;8.490;2023-08-21T14:02:39;2.40;;;1.63;;
51660;SDS011;37741;49.748;8.490;2023-08-21T14:05:06;1.98;;;1.20;;
51660;SDS011;37741;49.748;8.490;2023-08-21T14:07:32;2.20;;;1.40;;
51660;SDS011;37741;49.748;8.490;2023-08-21T14:09:59;3.05;;;1.70;;
51660;SDS011;37741;49.748;8.490;2023-08-21T14:12:27;2.33;;;1.48;;
51660;SDS011;37741;49.748;8.490;2023-08-21T14:14:54;2.67;;;1.50;;
51660;SDS011;37741;49.748;8.490;2023-08-21T14:17:20;3.75;;;1.70;;
51660;SDS011;37741;49.748;8.490;2023-08-21T14:19:45;2.42;;;1.48;;
51660;SDS011;37741;49.748;8.490;2023-08-21T14:22:11;2.25;;;1.48;;
51660;SDS011;37741;49.748;8.490;2023-08-21T14:24:36;3.03;;;1.80;;
51660;SDS011;37741;49.748;8.490;2023-08-21T14:27:02;2.20;;;1.50;;
51660;SDS011;37741;49.748;8.490;2023-08-21T14:29:28;2.30;;;1.38;;
51660;SDS011;37741;49.748;8.490;2023-08-21T14:31:54;2.20;;;1.23;;
51660;SDS011;37741;49.748;8.490;2023-08-21T14:34:19;2.40;;;1.60;;
51660;SDS011;37741;49.748;8.490;2023-08-21T14:36:45;2.78;;;1.67;;
51660;SDS011;37741;49.748;8.490;2023-08-21T14:39:15;3.75;;;1.70;;
51660;SDS011;37741;49.748;8.490;2023-08-21T14:41:41;3.15;;;1.50;;
51660;SDS011;37741;49.748;8.490;2023-08-21T14:44:07;2.53;;;1.70;;
51660;SDS011;37741;49.748;8.490;2023-08-21T14:46:33;4.68;;;1.75;;
51660;SDS011;37741;49.748;8.490;2023-08-21T14:48:59;2.53;;;1.75;;
51660;SDS011;37741;49.748;8.490;2023-08-21T14:51:25;3.10;;;1.48;;
51660;SDS011;37741;49.748;8.490;2023-08-21T14:53:51;3.83;;;1.70;;
51660;SDS011;37741;49.748;8.490;2023-08-21T14:56:16;2.20;;;1.38;;
51660;SDS011;37741;49.748;8.490;2023-08-21T14:58:42;2.08;;;1.25;;
51660;SDS011;37741;49.748;8.490;2023-08-21T15:01:11;3.25;;;1.50;;
51660;SDS011;37741;49.748;8.490;2023-08-21T15:03:36;2.90;;;2.05;;
51660;SDS011;37741;49.748;8.490;2023-08-21T15:06:02;2.72;;;1.90;;
51660;SDS011;37741;49.748;8.490;2023-08-21T15:08:28;2.38;;;1.67;;
51660;SDS011;37741;49.748;8.490;2023-08-21T15:10:53;4.22;;;1.95;;